createdAt,value
2022-12-05T00:00:25.301Z,3.78
2022-12-05T00:05:27.533Z,4.47
2022-12-05T00:10:29.750Z,4.13
2022-12-05T00:15:32.198Z,3.63
2022-12-05T00:20:34.743Z,4.20
2022-12-05T00:25:37.264Z,4.28
2022-12-05T00:30:41.297Z,2.80
2022-12-05T00:35:43.673Z,4.05
2022-12-05T00:40:45.890Z,4.10
2022-12-05T00:45:48.284Z,3.83
2022-12-05T00:50:50.483Z,3.42
2022-12-05T00:55:52.666Z,3.30
2022-12-05T01:00:54.944Z,3.55
2022-12-05T01:05:59.476Z,2.83
2022-12-05T01:11:02.521Z,2.88
2022-12-05T01:16:05.309Z,2.92
2022-12-05T01:21:07.953Z,3.78
2022-12-05T01:26:13.183Z,3.13
2022-12-05T01:31:31.151Z,3.55
2022-12-05T01:36:34.260Z,3.55
2022-12-05T01:41:40.345Z,5.60
2022-12-05T01:46:51.924Z,8.15
2022-12-05T01:51:58.858Z,11.13
2022-12-05T01:57:04.702Z,13.65
2022-12-05T02:02:08.882Z,15.52
2022-12-05T02:07:11.215Z,16.65
2022-12-05T02:12:13.583Z,15.05
2022-12-05T02:17:40.580Z,13.43
2022-12-05T02:22:55.440Z,9.68
2022-12-05T02:28:34.481Z,8.32
2022-12-05T02:33:57.582Z,6.85
2022-12-05T02:39:29.854Z,6.47
2022-12-05T02:44:43.247Z,6.63
2022-12-05T02:49:45.867Z,11.68
2022-12-05T02:54:51.828Z,26.25
2022-12-05T02:59:54.236Z,9.60
2022-12-05T03:05:02.772Z,64.30
2022-12-05T03:10:08.634Z,15.98
2022-12-05T03:15:26.667Z,10.27
2022-12-05T03:20:34.888Z,7.72
2022-12-05T03:25:56.178Z,10.07
2022-12-05T03:31:04.443Z,10.15
2022-12-05T03:36:16.969Z,8.85
2022-12-05T03:41:26.242Z,8.48
2022-12-05T03:46:37.416Z,10.83
2022-12-05T03:52:09.685Z,10.43
2022-12-05T03:57:21.927Z,9.65
2022-12-05T04:02:27.762Z,10.38
2022-12-05T04:07:33.258Z,34.80
2022-12-05T04:12:37.645Z,22.38
2022-12-05T04:18:00.770Z,17.70
2022-12-05T04:23:04.501Z,10.52
2022-12-05T04:28:22.098Z,11.10
2022-12-05T04:33:43.820Z,10.00
2022-12-05T04:38:58.620Z,10.75
2022-12-05T04:44:08.111Z,17.30
2022-12-05T04:49:15.552Z,33.13
2022-12-05T04:54:22.938Z,11.60
2022-12-05T04:59:25.200Z,12.98
2022-12-05T05:04:47.059Z,11.23
2022-12-05T05:09:49.529Z,12.88
2022-12-05T05:14:51.947Z,12.30
2022-12-05T05:20:16.884Z,13.60
2022-12-05T05:25:22.453Z,12.50
2022-12-05T05:30:25.521Z,13.63
2022-12-05T05:35:28.029Z,12.02
2022-12-05T05:40:30.253Z,11.80
2022-12-05T05:45:32.473Z,14.18
2022-12-05T05:50:34.914Z,14.68
2022-12-05T05:55:41.006Z,15.30
2022-12-05T06:00:43.244Z,13.60
2022-12-05T06:05:50.077Z,14.18
2022-12-05T06:10:55.308Z,16.92
2022-12-05T06:15:57.583Z,13.75
2022-12-05T06:21:00.191Z,12.45
2022-12-05T06:26:03.511Z,13.40
2022-12-05T06:31:17.998Z,22.08
2022-12-05T06:36:22.951Z,19.13
2022-12-05T06:41:25.694Z,13.82
2022-12-05T06:46:28.283Z,15.70
2022-12-05T06:51:30.687Z,23.83
2022-12-05T06:56:33.178Z,41.00
2022-12-05T07:01:42.848Z,55.67
2022-12-05T07:06:50.436Z,18.25
2022-12-05T07:11:54.104Z,11.73
2022-12-05T07:16:56.652Z,10.90
2022-12-05T07:21:59.163Z,11.43
2022-12-05T07:27:02.799Z,12.02
2022-12-05T07:42:54.776Z,14.77
2022-12-05T07:47:57.326Z,18.55
2022-12-05T07:52:59.786Z,23.48
2022-12-05T08:03:23.615Z,29.98
2022-12-05T08:08:26.034Z,25.65
2022-12-05T08:13:29.841Z,23.77
2022-12-05T08:18:32.514Z,22.45
2022-12-05T08:23:35.951Z,15.63
2022-12-05T08:28:38.851Z,13.15
2022-12-05T08:33:42.050Z,11.55
2022-12-05T08:38:44.919Z,11.70
2022-12-05T08:43:47.356Z,12.18
2022-12-05T08:48:49.553Z,12.45
2022-12-05T08:53:52.202Z,11.80
2022-12-05T08:58:56.486Z,10.43
2022-12-05T09:04:05.093Z,9.80
2022-12-05T09:09:12.052Z,8.43
2022-12-05T09:14:14.637Z,7.32
2022-12-05T09:19:26.158Z,6.95
2022-12-05T09:24:28.857Z,6.28
2022-12-05T09:29:32.071Z,6.15
2022-12-05T09:34:35.394Z,6.43
2022-12-05T09:39:38.002Z,5.45
2022-12-05T09:45:04.652Z,5.88
2022-12-05T09:50:24.357Z,4.68
2022-12-05T09:55:31.783Z,5.10
2022-12-05T10:00:34.618Z,5.32
2022-12-05T10:05:41.542Z,4.97
2022-12-05T10:11:10.455Z,5.43
2022-12-05T10:16:41.389Z,4.55
2022-12-05T10:22:05.146Z,5.05
2022-12-05T10:27:09.321Z,5.20
2022-12-05T10:32:25.101Z,7.10
2022-12-05T10:37:27.370Z,6.13
2022-12-05T10:42:34.827Z,5.28
2022-12-05T10:47:37.193Z,4.03
2022-12-05T10:52:39.651Z,5.03
2022-12-05T10:57:42.158Z,4.65
2022-12-05T11:02:44.609Z,4.10
2022-12-05T11:07:50.129Z,4.55
2022-12-05T11:12:52.677Z,4.60
2022-12-05T11:17:57.385Z,4.40
2022-12-05T11:23:23.734Z,5.50
2022-12-05T11:28:34.064Z,3.85
2022-12-05T11:33:37.700Z,3.17
2022-12-05T11:38:41.833Z,4.75
2022-12-05T11:44:23.900Z,4.65
2022-12-05T11:49:35.174Z,4.40
2022-12-05T11:55:10.736Z,5.15
2022-12-05T12:00:35.166Z,4.88
2022-12-05T12:06:09.147Z,5.88
2022-12-05T12:11:27.213Z,5.25
2022-12-05T12:16:50.619Z,5.25
2022-12-05T12:22:00.129Z,6.80
2022-12-05T12:27:46.621Z,6.57
2022-12-05T12:33:30.098Z,5.70
2022-12-05T12:38:52.732Z,4.68
2022-12-05T12:44:06.835Z,4.80
2022-12-05T12:49:36.497Z,4.95
2022-12-05T12:55:03.023Z,6.67
2022-12-05T13:00:41.483Z,7.25
2022-12-05T13:05:52.244Z,8.35
2022-12-05T13:10:59.187Z,8.02
2022-12-05T13:16:04.530Z,6.40
2022-12-05T13:21:09.619Z,5.78
2022-12-05T13:26:13.818Z,3.28
2022-12-05T13:31:18.467Z,2.45
2022-12-05T13:36:41.682Z,5.22
2022-12-05T13:42:15.246Z,7.57
2022-12-05T13:47:54.331Z,10.07
2022-12-05T13:53:01.386Z,5.65
2022-12-05T13:58:30.914Z,4.82
2022-12-05T14:03:33.123Z,5.97
2022-12-05T14:08:41.234Z,6.30
2022-12-05T14:13:45.633Z,4.82
2022-12-05T14:19:12.867Z,4.47
2022-12-05T14:24:51.511Z,4.75
2022-12-05T14:30:12.249Z,4.93
2022-12-05T14:35:25.203Z,6.25
2022-12-05T14:40:45.138Z,6.38
2022-12-05T14:45:53.557Z,5.45
2022-12-05T14:50:57.611Z,5.30
2022-12-05T14:56:26.347Z,5.93
2022-12-05T15:01:30.577Z,5.65
2022-12-05T15:06:35.906Z,5.90
2022-12-05T15:11:39.294Z,5.97
2022-12-05T15:16:46.119Z,6.25
2022-12-05T15:21:58.472Z,6.97
2022-12-05T15:27:04.896Z,5.68
2022-12-05T15:32:19.622Z,7.30
2022-12-05T15:37:33.113Z,8.45
2022-12-05T15:42:35.264Z,9.23
2022-12-05T15:47:37.691Z,9.82
2022-12-05T15:52:51.943Z,11.00
2022-12-05T15:58:13.016Z,10.35
2022-12-05T16:03:28.068Z,11.65
2022-12-05T16:08:40.807Z,14.55
2022-12-05T16:13:45.643Z,11.60
2022-12-05T16:18:54.850Z,13.30
2022-12-05T16:24:27.550Z,17.23
2022-12-05T16:29:32.847Z,10.55
2022-12-05T16:34:35.361Z,10.77
2022-12-05T16:39:37.702Z,8.70
2022-12-05T16:45:02.236Z,9.13
2022-12-05T16:50:24.834Z,9.27
2022-12-05T16:55:26.999Z,10.05
2022-12-05T17:00:30.922Z,12.27
2022-12-05T17:05:33.293Z,13.48
2022-12-05T17:10:35.559Z,20.35
2022-12-05T17:15:37.802Z,15.98
2022-12-05T17:20:42.380Z,17.00
2022-12-05T17:25:52.926Z,14.93
2022-12-05T17:30:55.193Z,17.77
2022-12-05T17:35:57.481Z,12.25
2022-12-05T17:41:02.633Z,10.50
2022-12-05T17:46:10.297Z,10.77
2022-12-05T17:51:14.917Z,13.52
2022-12-05T17:56:17.442Z,16.70
2022-12-05T18:01:21.291Z,13.25
2022-12-05T18:06:23.615Z,10.20
2022-12-05T18:11:26.049Z,11.05
2022-12-05T18:16:28.525Z,13.10
2022-12-05T18:21:31.093Z,13.55
2022-12-05T18:26:33.559Z,12.02
2022-12-05T18:31:36.026Z,12.40
2022-12-05T18:36:38.466Z,9.25
2022-12-05T18:41:41.100Z,19.58
2022-12-05T18:46:43.442Z,19.98
2022-12-05T18:51:45.733Z,10.38
2022-12-05T18:56:50.944Z,17.98
2022-12-05T19:01:53.282Z,13.23
2022-12-05T19:06:58.547Z,13.68
2022-12-05T19:12:01.273Z,12.18
2022-12-05T19:17:03.877Z,11.20
2022-12-05T19:22:06.385Z,11.75
2022-12-05T19:27:08.727Z,14.88
2022-12-05T19:32:11.371Z,10.82
2022-12-05T19:37:13.699Z,16.05
2022-12-05T19:42:15.983Z,12.13
2022-12-05T19:47:18.219Z,13.00
2022-12-05T19:52:20.525Z,14.75
2022-12-05T19:57:22.841Z,16.27
2022-12-05T20:02:25.789Z,16.92
2022-12-05T20:07:28.138Z,16.42
2022-12-05T20:12:30.367Z,17.67
2022-12-05T20:17:32.612Z,18.33
2022-12-05T20:22:35.007Z,16.83
2022-12-05T20:27:37.360Z,8.52
2022-12-05T20:32:39.693Z,7.07
2022-12-05T20:37:41.927Z,8.20
2022-12-05T20:42:46.777Z,10.20
2022-12-05T20:47:49.247Z,12.10
2022-12-05T20:52:51.608Z,11.18
2022-12-05T20:57:53.830Z,9.95
2022-12-05T21:02:57.272Z,9.38
2022-12-05T21:07:59.567Z,9.52
2022-12-05T21:13:02.187Z,9.23
2022-12-05T21:18:04.614Z,10.73
2022-12-05T21:23:06.977Z,12.30
2022-12-05T21:28:09.215Z,14.90
2022-12-05T21:33:11.658Z,11.77
2022-12-05T21:38:14.008Z,7.72
2022-12-05T21:43:17.458Z,11.30
2022-12-05T21:48:21.455Z,7.50
2022-12-05T21:53:24.361Z,7.75
2022-12-05T21:58:26.578Z,9.25
2022-12-05T22:03:28.904Z,9.82
2022-12-05T22:08:32.277Z,13.52
2022-12-05T22:13:35.035Z,19.02
2022-12-05T22:18:38.188Z,14.75
2022-12-05T22:23:40.433Z,11.48
2022-12-05T22:28:43.109Z,10.13
2022-12-05T22:33:46.341Z,7.78
2022-12-05T22:38:49.360Z,7.60
2022-12-05T22:43:57.183Z,7.03
2022-12-05T22:48:59.660Z,6.95
2022-12-05T22:54:01.917Z,7.60
2022-12-05T22:59:04.427Z,7.25
2022-12-05T23:04:10.586Z,8.25
2022-12-05T23:09:14.552Z,7.68
2022-12-05T23:14:17.053Z,7.43
2022-12-05T23:19:19.302Z,6.05
2022-12-05T23:24:21.813Z,6.38
2022-12-05T23:29:24.284Z,5.90
2022-12-05T23:34:28.470Z,6.97
2022-12-05T23:39:31.014Z,5.82
2022-12-05T23:44:33.684Z,6.60
2022-12-05T23:49:36.080Z,7.90
2022-12-05T23:54:39.138Z,7.88
2022-12-05T23:59:41.782Z,6.07
